createdAt,value
2016-06-26T00:00:40.853Z,83.48
2016-06-26T00:01:40.834Z,83.19
2016-06-26T00:02:40.826Z,83.09
2016-06-26T00:03:40.807Z,83.09
2016-06-26T00:04:40.799Z,83
2016-06-26T00:05:40.139Z,83.19
2016-06-26T00:06:40.760Z,83.04
2016-06-26T00:07:40.742Z,83.86
2016-06-26T00:08:40.092Z,83.67
2016-06-26T00:09:40.724Z,83.19
2016-06-26T00:10:40.855Z,83.29
2016-06-26T00:11:40.868Z,82.85
2016-06-26T00:12:40.144Z,83.39
2016-06-26T00:13:40.014Z,82.9
2016-06-26T00:14:40.667Z,83.19
2016-06-26T00:15:40.623Z,83
2016-06-26T00:16:40.617Z,83.29
2016-06-26T00:17:40.591Z,83.48
2016-06-26T00:18:40.579Z,82.81
2016-06-26T00:19:40.568Z,83.23
2016-06-26T00:20:39.905Z,83
2016-06-26T00:21:40.527Z,83.48
2016-06-26T00:22:40.749Z,83.29
2016-06-26T00:23:40.525Z,82.61
2016-06-26T00:24:40.495Z,82.46
2016-06-26T00:25:40.474Z,83.42
2016-06-26T00:26:40.483Z,83.29
2016-06-26T00:27:40.447Z,82.81
2016-06-26T00:28:40.431Z,82.94
2016-06-26T00:29:40.426Z,83.39
2016-06-26T00:30:40.408Z,83
2016-06-26T00:31:40.382Z,83.14
2016-06-26T00:32:40.371Z,83.29
2016-06-26T00:33:39.715Z,83.39
2016-06-26T00:34:40.338Z,82.9
2016-06-26T00:35:40.329Z,82.65
2016-06-26T00:36:39.686Z,82.61
2016-06-26T00:37:40.307Z,82.14
2016-06-26T00:38:40.311Z,82.32
2016-06-26T00:39:40.268Z,82.52
2016-06-26T00:40:40.258Z,82.94
2016-06-26T00:41:40.232Z,83.29
2016-06-26T00:42:40.223Z,83.29
2016-06-26T00:43:40.207Z,83.58
2016-06-26T00:44:40.198Z,83
2016-06-26T00:45:40.185Z,83.19
2016-06-26T00:46:40.167Z,83.09
2016-06-26T00:47:40.154Z,82.81
2016-06-26T00:48:39.500Z,83.09
2016-06-26T00:49:40.109Z,83.86
2016-06-26T00:50:40.100Z,84.25
2016-06-26T00:51:39.443Z,83.67
2016-06-26T00:52:39.440Z,83.96
2016-06-26T00:53:40.059Z,83.09
2016-06-26T00:54:40.048Z,83.86
2016-06-26T00:55:40.030Z,83.67
2016-06-26T00:56:39.373Z,83.29
2016-06-26T00:57:40.005Z,83.48
2016-06-26T00:58:39.987Z,83.33
2016-06-26T00:59:39.325Z,83
2016-06-26T01:00:39.953Z,82.81
2016-06-26T01:01:39.307Z,83.14
2016-06-26T01:02:39.935Z,83.48
2016-06-26T01:03:39.922Z,83.42
2016-06-26T01:04:39.898Z,83.19
2016-06-26T01:05:39.280Z,83.58
2016-06-26T01:06:39.218Z,83.86
2016-06-26T01:07:39.855Z,83.29
2016-06-26T01:08:39.832Z,84.25
2016-06-26T01:09:39.817Z,84.44
2016-06-26T01:10:39.803Z,84.16
2016-06-26T01:11:39.787Z,84.63
2016-06-26T01:12:39.776Z,85.31
2016-06-26T01:13:39.752Z,85.07
2016-06-26T01:14:39.756Z,85.27
2016-06-26T01:15:39.082Z,84.98
2016-06-26T01:16:39.703Z,84.44
2016-06-26T01:17:39.699Z,84.44
2016-06-26T01:18:39.683Z,85.36
2016-06-26T01:19:39.034Z,84.78
2016-06-26T01:20:39.647Z,85.07
2016-06-26T01:21:39.626Z,85.6
2016-06-26T01:22:39.632Z,85.07
2016-06-26T01:23:39.610Z,85.4
2016-06-26T01:24:39.595Z,85.5
2016-06-26T01:25:39.575Z,85.11
2016-06-26T01:26:39.560Z,84.98
2016-06-26T01:27:39.551Z,85.07
2016-06-26T01:28:39.537Z,85.07
2016-06-26T01:29:39.525Z,85.17
2016-06-26T01:30:38.857Z,85.07
2016-06-26T01:31:38.844Z,84.5
2016-06-26T01:32:38.830Z,84.34
2016-06-26T01:33:39.458Z,84.63
2016-06-26T01:34:39.439Z,84.73
2016-06-26T01:35:39.427Z,83.77
2016-06-26T01:36:39.416Z,83.86
2016-06-26T01:37:39.397Z,84.63
2016-06-26T01:38:38.757Z,84.63
2016-06-26T01:39:39.389Z,84.83
2016-06-26T01:40:38.716Z,84.63
2016-06-26T01:41:39.346Z,84.83
2016-06-26T01:42:39.321Z,84.44
2016-06-26T01:43:39.314Z,84.78
2016-06-26T01:44:39.302Z,84.78
2016-06-26T01:45:39.299Z,84.63
2016-06-26T01:46:39.265Z,84.83
2016-06-26T01:47:39.256Z,84.44
2016-06-26T01:48:39.238Z,84.59
2016-06-26T01:49:39.434Z,84.06
2016-06-26T01:50:39.206Z,84.54
2016-06-26T01:51:39.188Z,84.34
2016-06-26T01:52:39.179Z,84.73
2016-06-26T01:53:39.154Z,84.54
2016-06-26T01:54:39.142Z,84.44
2016-06-26T01:55:39.153Z,84.83
2016-06-26T01:56:39.117Z,85.07
2016-06-26T01:57:39.095Z,85.46
2016-06-26T01:58:39.107Z,85.07
2016-06-26T01:59:38.432Z,85.27
2016-06-26T02:00:39.052Z,84.63
2016-06-26T02:01:39.034Z,84.54
2016-06-26T02:02:39.014Z,84.63
2016-06-26T02:03:38.386Z,84.34
2016-06-26T02:04:38.349Z,84.69
2016-06-26T02:05:38.977Z,84.54
2016-06-26T02:06:38.974Z,84.06
2016-06-26T02:07:38.302Z,84.44
2016-06-26T02:08:38.287Z,84.5
2016-06-26T02:09:38.910Z,85.4
2016-06-26T02:10:38.903Z,85.46
2016-06-26T02:11:38.883Z,85.75
2016-06-26T02:12:38.865Z,85.75
2016-06-26T02:13:38.851Z,85.46
2016-06-26T02:14:38.865Z,85.84
2016-06-26T02:15:38.836Z,85.46
2016-06-26T02:16:38.818Z,85.17
2016-06-26T02:17:38.159Z,85.55
2016-06-26T02:18:38.784Z,86.32
2016-06-26T02:19:38.761Z,86.42
2016-06-26T02:20:38.745Z,85.65
2016-06-26T02:21:38.753Z,85.55
2016-06-26T02:22:38.723Z,85.94
2016-06-26T02:23:38.704Z,86.42
2016-06-26T02:24:38.046Z,86.52
2016-06-26T02:25:38.668Z,86.04
2016-06-26T02:26:38.652Z,85.65
2016-06-26T02:27:38.007Z,85.94
2016-06-26T02:28:38.627Z,84.98
2016-06-26T02:29:38.620Z,84.98
2016-06-26T02:30:37.970Z,86.52
2016-06-26T02:31:38.585Z,86.18
2016-06-26T02:32:38.566Z,85.75
2016-06-26T02:33:38.550Z,85.07
2016-06-26T02:34:38.573Z,85.07
2016-06-26T02:35:37.881Z,85.75
2016-06-26T02:36:38.523Z,85.75
2016-06-26T02:37:37.848Z,85.94
2016-06-26T02:38:38.481Z,85.46
2016-06-26T02:39:38.488Z,85.75
2016-06-26T02:40:37.813Z,85.46
2016-06-26T02:41:38.443Z,85.07
2016-06-26T02:42:38.421Z,84.4
2016-06-26T02:43:37.773Z,84.5
2016-06-26T02:44:37.755Z,84.88
2016-06-26T02:45:38.370Z,85.46
2016-06-26T02:46:38.358Z,85.46
2016-06-26T02:47:38.335Z,85.17
2016-06-26T02:48:38.321Z,85.17
2016-06-26T02:49:38.305Z,84.98
2016-06-26T02:50:38.293Z,85.27
2016-06-26T02:51:38.282Z,85.17
2016-06-26T02:52:38.265Z,85.36
2016-06-26T02:53:38.252Z,85.55
2016-06-26T02:54:38.240Z,85.65
2016-06-26T02:55:38.226Z,85.07
2016-06-26T02:56:37.576Z,85.27
2016-06-26T02:57:38.194Z,85.27
2016-06-26T02:58:38.170Z,86.04
2016-06-26T02:59:37.540Z,85.07
2016-06-26T03:00:38.142Z,85.27
2016-06-26T03:01:38.135Z,84.88
2016-06-26T03:02:38.115Z,84.98
2016-06-26T03:03:37.454Z,85.46
2016-06-26T03:04:38.085Z,85.75
2016-06-26T03:05:38.062Z,85.46
2016-06-26T03:06:38.052Z,85.65
2016-06-26T03:07:38.029Z,86.22
2016-06-26T03:08:38.029Z,86.99
2016-06-26T03:09:37.374Z,86.76
2016-06-26T03:10:38.002Z,86.22
2016-06-26T03:11:37.975Z,86.76
2016-06-26T03:12:37.966Z,86.28
2016-06-26T03:13:37.951Z,86.04
2016-06-26T03:14:37.919Z,85.75
2016-06-26T03:15:37.281Z,85.75
2016-06-26T03:16:37.267Z,85.55
2016-06-26T03:17:37.883Z,86.42
2016-06-26T03:18:37.867Z,86.32
2016-06-26T03:19:37.858Z,85.84
2016-06-26T03:20:37.846Z,85.55
2016-06-26T03:21:37.822Z,85.94
2016-06-26T03:22:37.814Z,85.75
2016-06-26T03:23:37.796Z,86.32
2016-06-26T03:24:37.146Z,86.42
2016-06-26T03:25:37.767Z,86.32
2016-06-26T03:26:37.752Z,86.13
2016-06-26T03:27:37.730Z,86.57
2016-06-26T03:28:37.724Z,86.18
2016-06-26T03:29:37.699Z,85.55
2016-06-26T03:30:37.685Z,86.04
2016-06-26T03:31:37.671Z,85.07
2016-06-26T03:32:37.024Z,85.27
2016-06-26T03:33:37.011Z,85.65
2016-06-26T03:34:37.634Z,86.32
2016-06-26T03:35:37.619Z,86.32
2016-06-26T03:36:37.601Z,86.32
2016-06-26T03:37:37.577Z,85.75
2016-06-26T03:38:37.570Z,86.32
2016-06-26T03:39:36.917Z,86.61
2016-06-26T03:40:36.893Z,85.84
2016-06-26T03:41:36.885Z,85.36
2016-06-26T03:42:37.505Z,84.78
2016-06-26T03:43:37.493Z,85.17
2016-06-26T03:44:37.474Z,85.07
2016-06-26T03:45:37.464Z,84.78
2016-06-26T03:46:37.443Z,85.46
2016-06-26T03:47:37.457Z,85.46
2016-06-26T03:48:37.419Z,85.94
2016-06-26T03:49:37.407Z,86.22
2016-06-26T03:50:37.387Z,85.99
2016-06-26T03:51:37.375Z,86.18
2016-06-26T03:52:36.709Z,86.28
2016-06-26T03:53:36.714Z,86.04
2016-06-26T03:54:36.686Z,86.32
2016-06-26T03:55:37.317Z,85.65
2016-06-26T03:56:37.291Z,86.52
2016-06-26T03:57:37.279Z,86.28
2016-06-26T03:58:36.622Z,86.61
2016-06-26T03:59:37.256Z,86.76
2016-06-26T04:00:37.238Z,86.95
2016-06-26T04:01:37.225Z,86.85
2016-06-26T04:02:37.203Z,86.09
2016-06-26T04:03:37.190Z,86.32
2016-06-26T04:04:36.539Z,86.38
2016-06-26T04:05:37.157Z,86.85
2016-06-26T04:06:37.150Z,86.57
2016-06-26T04:07:37.138Z,86.57
2016-06-26T04:08:37.117Z,86.57
2016-06-26T04:09:37.107Z,86.85
2016-06-26T04:10:36.451Z,86.85
2016-06-26T04:11:37.071Z,86.85
2016-06-26T04:12:37.056Z,86.85
2016-06-26T04:13:36.401Z,86.22
2016-06-26T04:14:37.025Z,86.22
2016-06-26T04:15:37.014Z,86.32
2016-06-26T04:16:36.986Z,86.09
2016-06-26T04:17:36.974Z,86.18
2016-06-26T04:18:36.968Z,85.65
2016-06-26T04:19:36.949Z,85.75
2016-06-26T04:20:36.292Z,86.04
2016-06-26T04:21:36.280Z,85.55
2016-06-26T04:22:36.273Z,85.46
2016-06-26T04:23:36.255Z,85.36
2016-06-26T04:24:36.880Z,85.55
2016-06-26T04:25:36.867Z,86.04
2016-06-26T04:26:36.207Z,85.46
2016-06-26T04:27:36.862Z,85.65
2016-06-26T04:28:36.822Z,85.65
2016-06-26T04:29:36.154Z,85.65
2016-06-26T04:30:36.782Z,85.51
2016-06-26T04:31:36.798Z,85.84
2016-06-26T04:32:36.751Z,85.27
2016-06-26T04:33:36.741Z,85.36
2016-06-26T04:34:36.720Z,86.04
2016-06-26T04:35:36.700Z,85.65
2016-06-26T04:36:36.689Z,85.65
2016-06-26T04:37:36.681Z,85.65
2016-06-26T04:38:36.659Z,86.42
2016-06-26T04:39:35.999Z,85.75
2016-06-26T04:40:36.639Z,85.71
2016-06-26T04:41:36.630Z,86.04
2016-06-26T04:42:36.597Z,85.65
2016-06-26T04:43:36.583Z,85.75
2016-06-26T04:44:36.566Z,86.22
2016-06-26T04:45:35.925Z,86.52
2016-06-26T04:46:36.539Z,85.65
2016-06-26T04:47:36.530Z,85.75
2016-06-26T04:48:36.526Z,85.84
2016-06-26T04:49:36.508Z,85.75
2016-06-26T04:50:35.834Z,85.65
2016-06-26T04:51:35.815Z,85.55
2016-06-26T04:52:36.441Z,85.65
2016-06-26T04:53:36.458Z,85.65
2016-06-26T04:54:36.416Z,85.55
2016-06-26T04:55:35.768Z,85.84
2016-06-26T04:56:35.744Z,85.84
2016-06-26T04:57:35.736Z,85.94
2016-06-26T04:58:36.358Z,85.84
2016-06-26T04:59:36.341Z,85.94
2016-06-26T05:00:36.354Z,85.84
2016-06-26T05:01:35.669Z,86.71
2016-06-26T05:02:36.332Z,86.52
2016-06-26T05:03:36.280Z,86.61
2016-06-26T05:04:36.271Z,86.13
2016-06-26T05:05:35.618Z,86.99
2016-06-26T05:06:36.247Z,86.85
2016-06-26T05:07:36.221Z,86.8
2016-06-26T05:08:36.350Z,87.34
2016-06-26T05:09:35.555Z,86.9
2016-06-26T05:10:36.176Z,87.38
2016-06-26T05:11:35.516Z,86.66
2016-06-26T05:12:36.159Z,86.8
2016-06-26T05:13:36.142Z,86.99
2016-06-26T05:14:36.123Z,87.48
2016-06-26T05:15:36.104Z,87.82
2016-06-26T05:16:36.088Z,87.53
2016-06-26T05:17:36.086Z,87.82
2016-06-26T05:18:36.056Z,87.24
2016-06-26T05:19:36.038Z,87.19
2016-06-26T05:20:36.030Z,86.9
2016-06-26T05:21:36.016Z,87.19
2016-06-26T05:22:35.997Z,87.29
2016-06-26T05:23:35.985Z,87.24
2016-06-26T05:24:35.973Z,87.15
2016-06-26T05:25:35.956Z,87.19
2016-06-26T05:26:35.299Z,87.09
2016-06-26T05:27:35.930Z,86.52
2016-06-26T05:28:35.912Z,86.32
2016-06-26T05:29:35.897Z,86.32
2016-06-26T05:30:35.878Z,87.09
2016-06-26T05:31:35.234Z,86.32
2016-06-26T05:32:35.843Z,87.09
2016-06-26T05:33:35.833Z,86.32
2016-06-26T05:34:35.828Z,86.32
2016-06-26T05:35:35.798Z,85.75
2016-06-26T05:36:35.156Z,86.42
2016-06-26T05:37:35.771Z,85.84
2016-06-26T05:38:35.125Z,85.75
2016-06-26T05:39:35.748Z,86.04
2016-06-26T05:40:35.751Z,86.04
2016-06-26T05:41:35.711Z,86.32
2016-06-26T05:42:35.068Z,86.9
2016-06-26T05:43:35.697Z,86.13
2016-06-26T05:44:35.665Z,86.22
2016-06-26T05:45:35.662Z,85.65
2016-06-26T05:46:35.636Z,85.75
2016-06-26T05:47:35.661Z,85.75
2016-06-26T05:48:35.605Z,86.04
2016-06-26T05:49:35.587Z,86.42
2016-06-26T05:50:35.580Z,85.65
2016-06-26T05:51:34.931Z,85.27
2016-06-26T05:52:35.546Z,85.17
2016-06-26T05:53:35.580Z,85.6
2016-06-26T05:54:35.532Z,84.92
2016-06-26T05:55:34.861Z,85.11
2016-06-26T05:56:35.492Z,84.5
2016-06-26T05:57:34.838Z,84.73
2016-06-26T05:58:34.811Z,84.63
2016-06-26T05:59:34.801Z,84.59
2016-06-26T06:00:35.434Z,84.92
2016-06-26T06:01:35.409Z,85.46
2016-06-26T06:02:34.767Z,85.36
2016-06-26T06:03:35.385Z,85.31
2016-06-26T06:04:35.368Z,84.73
2016-06-26T06:05:35.350Z,85.31
2016-06-26T06:06:35.345Z,84.83
2016-06-26T06:07:35.337Z,84.54
2016-06-26T06:08:35.313Z,84.98
2016-06-26T06:09:35.302Z,85.07
2016-06-26T06:10:35.279Z,85.02
2016-06-26T06:11:35.260Z,85.6
2016-06-26T06:12:35.257Z,85.55
2016-06-26T06:13:35.235Z,85.46
2016-06-26T06:14:34.578Z,85.27
2016-06-26T06:15:35.216Z,85.4
2016-06-26T06:16:35.192Z,85.55
2016-06-26T06:17:35.173Z,85.4
2016-06-26T06:18:35.164Z,84.3
2016-06-26T06:19:34.510Z,84.06
2016-06-26T06:20:35.131Z,83.67
2016-06-26T06:21:35.115Z,83.96
2016-06-26T06:22:35.114Z,84.34
2016-06-26T06:23:34.448Z,84.73
2016-06-26T06:24:35.068Z,84.83
2016-06-26T06:25:34.422Z,84.69
2016-06-26T06:26:35.042Z,84.16
2016-06-26T06:27:35.019Z,84.06
2016-06-26T06:28:35.022Z,83.86
2016-06-26T06:29:34.994Z,83
2016-06-26T06:30:34.979Z,83.39
2016-06-26T06:31:34.971Z,83.19
2016-06-26T06:32:34.957Z,83.96
2016-06-26T06:33:34.295Z,83.86
2016-06-26T06:34:34.921Z,84.63
2016-06-26T06:35:34.894Z,84.78
2016-06-26T06:36:34.902Z,83.96
2016-06-26T06:37:34.237Z,83.86
2016-06-26T06:38:34.858Z,83.96
2016-06-26T06:39:34.207Z,84.06
2016-06-26T06:40:34.197Z,83.09
2016-06-26T06:41:34.812Z,83.77
2016-06-26T06:42:34.807Z,83.29
2016-06-26T06:43:34.787Z,83.09
2016-06-26T06:44:34.779Z,83.67
2016-06-26T06:45:34.756Z,83.58
2016-06-26T06:46:34.738Z,83.09
2016-06-26T06:47:34.724Z,83.29
2016-06-26T06:48:34.710Z,83.09
2016-06-26T06:49:34.720Z,83.52
2016-06-26T06:50:34.690Z,82.81
2016-06-26T06:51:34.666Z,83.23
2016-06-26T06:52:34.655Z,83.19
2016-06-26T06:53:34.636Z,83.58
2016-06-26T06:54:34.623Z,83.19
2016-06-26T06:55:34.605Z,83.14
2016-06-26T06:56:34.596Z,83.39
2016-06-26T06:57:33.935Z,82.46
2016-06-26T06:58:34.558Z,82.46
2016-06-26T06:59:33.904Z,83.42
2016-06-26T07:00:34.536Z,82.17
2016-06-26T07:01:34.522Z,82.85
2016-06-26T07:02:33.872Z,82.08
2016-06-26T07:03:34.485Z,81.98
2016-06-26T07:04:33.845Z,82.08
2016-06-26T07:05:34.459Z,81.98
2016-06-26T07:06:34.442Z,81.5
2016-06-26T07:07:34.424Z,81.79
2016-06-26T07:08:34.412Z,81.79
2016-06-26T07:09:34.405Z,81.88
2016-06-26T07:10:34.390Z,81.6
2016-06-26T07:11:34.377Z,81.21
2016-06-26T07:12:33.718Z,81.3
2016-06-26T07:13:34.347Z,81.6
2016-06-26T07:14:33.677Z,80.87
2016-06-26T07:15:34.318Z,81.02
2016-06-26T07:16:34.291Z,81.16
2016-06-26T07:17:34.282Z,80.87
2016-06-26T07:18:34.275Z,81.16
2016-06-26T07:19:33.621Z,81.7
2016-06-26T07:20:33.599Z,80.92
2016-06-26T07:21:33.586Z,81.83
2016-06-26T07:22:34.216Z,81.63
2016-06-26T07:23:34.198Z,81.06
2016-06-26T07:24:34.181Z,80.87
2016-06-26T07:25:34.163Z,80.68
2016-06-26T07:26:34.166Z,80.1
2016-06-26T07:27:34.126Z,81.16
2016-06-26T07:28:34.115Z,81.25
2016-06-26T07:29:33.462Z,81.5
2016-06-26T07:30:34.133Z,81.4
2016-06-26T07:31:34.076Z,81.63
2016-06-26T07:32:34.064Z,81.45
2016-06-26T07:33:34.281Z,80.68
2016-06-26T07:34:34.032Z,80.96
2016-06-26T07:35:33.393Z,81.25
2016-06-26T07:36:33.996Z,80.96
2016-06-26T07:37:33.986Z,80.87
2016-06-26T07:38:33.985Z,81.25
2016-06-26T07:39:33.325Z,80.77
2016-06-26T07:40:33.938Z,80.38
2016-06-26T07:41:33.284Z,80.29
2016-06-26T07:42:33.933Z,80.48
2016-06-26T07:43:33.901Z,80.38
2016-06-26T07:44:33.888Z,80.38
2016-06-26T07:45:33.871Z,79.9
2016-06-26T07:46:33.859Z,79.75
2016-06-26T07:47:33.857Z,80.23
2016-06-26T07:48:33.195Z,79.85
2016-06-26T07:49:33.196Z,80.43
2016-06-26T07:50:33.809Z,79.85
2016-06-26T07:51:33.795Z,79.75
2016-06-26T07:52:33.790Z,79.36
2016-06-26T07:53:33.763Z,79.66
2016-06-26T07:54:33.791Z,79.46
2016-06-26T07:55:33.728Z,79.56
2016-06-26T07:56:33.717Z,79.85
2016-06-26T07:57:33.060Z,80.04
2016-06-26T07:58:33.046Z,79.75
2016-06-26T07:59:33.026Z,79.85
2016-06-26T08:00:33.658Z,79.46
2016-06-26T08:01:33.646Z,79.27
2016-06-26T08:02:33.638Z,79.31
2016-06-26T08:03:33.614Z,78.63
2016-06-26T08:04:33.601Z,78.15
2016-06-26T08:05:33.589Z,77.76
2016-06-26T08:06:32.961Z,78.06
2016-06-26T08:07:32.917Z,78.19
2016-06-26T08:08:32.906Z,77.81
2016-06-26T08:09:33.527Z,77.42
2016-06-26T08:10:32.877Z,77.33
2016-06-26T08:11:33.499Z,77.23
2016-06-26T08:12:33.483Z,77.42
2016-06-26T08:13:32.831Z,76.93
2016-06-26T08:14:33.455Z,77.51
2016-06-26T08:15:32.823Z,76.75
2016-06-26T08:16:33.422Z,76.75
2016-06-26T08:17:33.412Z,77.42
2016-06-26T08:18:33.399Z,77.42
2016-06-26T08:19:33.392Z,77.51
2016-06-26T08:20:33.382Z,77.61
2016-06-26T08:21:33.356Z,77.42
2016-06-26T08:22:33.342Z,76.36
2016-06-26T08:23:33.330Z,76.68
2016-06-26T08:24:33.322Z,76.65
2016-06-26T08:25:32.656Z,76.5
2016-06-26T08:26:32.657Z,76.5
2016-06-26T08:27:33.279Z,76.34
2016-06-26T08:28:33.256Z,76.5
2016-06-26T08:29:33.235Z,76.3
2016-06-26T08:30:32.585Z,76.1
2016-06-26T08:31:33.216Z,76.01
2016-06-26T08:32:33.211Z,75.43
2016-06-26T08:33:33.181Z,76.3
2016-06-26T08:34:33.171Z,76.59
2016-06-26T08:35:33.159Z,76.88
2016-06-26T08:36:33.140Z,76.1
2016-06-26T08:37:33.130Z,76.5
2016-06-26T08:38:33.142Z,76.5
2016-06-26T08:39:33.123Z,76.5
2016-06-26T08:40:33.105Z,76.59
2016-06-26T08:41:33.077Z,76.59
2016-06-26T08:42:33.077Z,75.92
2016-06-26T08:43:32.410Z,75.27
2016-06-26T08:44:32.416Z,75.95
2016-06-26T08:45:33.023Z,76.2
2016-06-26T08:46:33.025Z,75.92
2016-06-26T08:47:33.006Z,75.85
2016-06-26T08:48:32.998Z,75.85
2016-06-26T08:49:32.318Z,75.67
2016-06-26T08:50:32.963Z,75.37
2016-06-26T08:51:32.940Z,75.27
2016-06-26T08:52:32.924Z,75.09
2016-06-26T08:53:32.274Z,74.99
2016-06-26T08:54:32.901Z,74.69
2016-06-26T08:55:32.882Z,75.02
2016-06-26T08:56:32.869Z,74.54
2016-06-26T08:57:32.855Z,75.41
2016-06-26T08:58:32.850Z,75.12
2016-06-26T08:59:32.197Z,75.22
2016-06-26T09:00:32.178Z,74.89
2016-06-26T09:01:32.821Z,74.69
2016-06-26T09:02:32.161Z,74.44
2016-06-26T09:03:32.145Z,75.02
2016-06-26T09:04:32.771Z,74.41
2016-06-26T09:05:32.107Z,74.54
2016-06-26T09:06:32.754Z,73.38
2016-06-26T09:07:32.731Z,73.8
2016-06-26T09:08:32.709Z,73.61
2016-06-26T09:09:32.693Z,74
2016-06-26T09:10:32.677Z,73.52
2016-06-26T09:11:32.657Z,72.36
2016-06-26T09:12:32.014Z,72.84
2016-06-26T09:13:32.000Z,72.84
2016-06-26T09:14:32.654Z,72.94
2016-06-26T09:15:31.971Z,72.84
2016-06-26T09:16:32.594Z,72.64
2016-06-26T09:17:32.590Z,72.94
2016-06-26T09:18:31.923Z,72.36
2016-06-26T09:19:31.927Z,72.94
2016-06-26T09:20:32.545Z,73.9
2016-06-26T09:21:32.531Z,73.32
2016-06-26T09:22:32.510Z,72.84
2016-06-26T09:23:32.504Z,72.1
2016-06-26T09:24:32.499Z,71.42
2016-06-26T09:25:32.491Z,71.46
2016-06-26T09:26:32.468Z,71.26
2016-06-26T09:27:31.861Z,70.98
2016-06-26T09:28:32.447Z,71.26
2016-06-26T09:29:32.421Z,70.94
2016-06-26T09:30:32.440Z,71.14
2016-06-26T09:31:32.393Z,71.23
2016-06-26T09:32:31.765Z,71.81
2016-06-26T09:33:32.375Z,71.91
2016-06-26T09:34:31.724Z,71.72
2016-06-26T09:35:32.350Z,71.33
2016-06-26T09:36:32.337Z,70.68
2016-06-26T09:37:32.324Z,71.08
2016-06-26T09:38:32.309Z,71.17
2016-06-26T09:39:32.306Z,71.17
2016-06-26T09:40:32.276Z,70.68
2016-06-26T09:41:32.276Z,70.3
2016-06-26T09:42:32.260Z,70.53
2016-06-26T09:43:32.277Z,69.66
2016-06-26T09:44:32.238Z,69.37
2016-06-26T09:45:32.221Z,69.08
2016-06-26T09:46:32.223Z,69.31
2016-06-26T09:47:32.198Z,69.75
2016-06-26T09:48:31.539Z,70.14
2016-06-26T09:49:32.165Z,69.46
2016-06-26T09:50:32.158Z,69.79
2016-06-26T09:51:32.137Z,69.17
2016-06-26T09:52:32.129Z,69.75
2016-06-26T09:53:32.118Z,69.08
2016-06-26T09:54:32.114Z,69.27
2016-06-26T09:55:32.102Z,69.4
2016-06-26T09:56:32.082Z,68.53
2016-06-26T09:57:32.065Z,67.95
2016-06-26T09:58:32.064Z,67.66
2016-06-26T09:59:32.036Z,67.88
2016-06-26T10:00:32.030Z,66.92
2016-06-26T10:01:32.017Z,68.18
2016-06-26T10:02:31.357Z,69.5
2016-06-26T10:03:32.004Z,68.53
2016-06-26T10:04:31.969Z,68.73
2016-06-26T10:05:31.979Z,68.73
2016-06-26T10:06:31.960Z,69.31
2016-06-26T10:07:31.939Z,68.73
2016-06-26T10:08:31.934Z,68.15
2016-06-26T10:09:31.939Z,67.69
2016-06-26T10:10:31.910Z,67.11
2016-06-26T10:11:31.907Z,66.85
2016-06-26T10:12:31.241Z,67.05
2016-06-26T10:13:31.229Z,67.44
2016-06-26T10:14:31.874Z,66.95
2016-06-26T10:15:31.847Z,67.14
2016-06-26T10:16:31.214Z,66.85
2016-06-26T10:17:31.807Z,66.95
2016-06-26T10:18:31.810Z,67.24
2016-06-26T10:19:31.799Z,66.66
2016-06-26T10:20:31.165Z,66.37
2016-06-26T10:21:31.133Z,66.79
2016-06-26T10:22:31.115Z,65.82
2016-06-26T10:23:31.753Z,66.2
2016-06-26T10:24:31.738Z,65.47
2016-06-26T10:25:31.082Z,65.75
2016-06-26T10:26:31.703Z,65.47
2016-06-26T10:27:31.057Z,64.78
2016-06-26T10:28:31.692Z,65.27
2016-06-26T10:29:31.669Z,64.78
2016-06-26T10:30:31.030Z,64.43
2016-06-26T10:31:31.653Z,63.2
2016-06-26T10:32:31.639Z,62.71
2016-06-26T10:33:31.627Z,63.1
2016-06-26T10:34:30.981Z,63.01
2016-06-26T10:35:31.621Z,63.07
2016-06-26T10:36:30.950Z,63.2
2016-06-26T10:37:31.581Z,63.07
2016-06-26T10:38:31.564Z,63.01
2016-06-26T10:39:30.919Z,61.74
2016-06-26T10:40:31.545Z,61.55
2016-06-26T10:41:31.539Z,60.54
2016-06-26T10:42:31.523Z,60.74
2016-06-26T10:43:30.868Z,60.15
2016-06-26T10:44:30.862Z,59.67
2016-06-26T10:45:30.850Z,59.76
2016-06-26T10:46:31.492Z,59.99
2016-06-26T10:47:31.461Z,59.67
2016-06-26T10:48:31.452Z,59.47
2016-06-26T10:49:31.435Z,58.89
2016-06-26T10:50:31.429Z,59.47
2016-06-26T10:51:31.417Z,59.69
2016-06-26T10:52:31.417Z,59.01
2016-06-26T10:53:31.403Z,58.82
2016-06-26T10:54:31.378Z,57.49
2016-06-26T10:55:31.389Z,57.49
2016-06-26T10:56:31.370Z,56.61
2016-06-26T10:57:31.348Z,56.12
2016-06-26T10:58:31.349Z,55.96
2016-06-26T10:59:31.329Z,55.6
2016-06-26T11:00:30.692Z,55.79
2016-06-26T11:01:31.307Z,56.15
2016-06-26T11:02:31.303Z,54.99
2016-06-26T11:03:30.653Z,54.52
2016-06-26T11:04:31.269Z,54.43
2016-06-26T11:05:31.257Z,54.03
2016-06-26T11:06:31.255Z,53.85
2016-06-26T11:07:31.244Z,54.36
2016-06-26T11:08:31.240Z,53.28
2016-06-26T11:09:31.227Z,55.79
2016-06-26T11:10:31.217Z,57.07
2016-06-26T11:11:31.211Z,54.76
2016-06-26T11:12:31.195Z,52.84
2016-06-26T11:13:31.191Z,52.6
2016-06-26T11:14:31.178Z,51.82
2016-06-26T11:15:31.149Z,51.26
2016-06-26T11:16:31.148Z,51.09
2016-06-26T11:17:31.140Z,51.29
2016-06-26T11:18:30.489Z,50.04
2016-06-26T11:19:31.120Z,50.04
2016-06-26T11:20:31.104Z,49.66
2016-06-26T11:21:31.095Z,49.58
2016-06-26T11:22:30.449Z,49.61
2016-06-26T11:23:31.085Z,49.9
2016-06-26T11:24:31.073Z,48.73
2016-06-26T11:25:31.051Z,48.34
2016-06-26T11:26:30.418Z,48.36
2016-06-26T11:27:30.397Z,48.85
2016-06-26T11:28:31.040Z,50.2
2016-06-26T11:29:30.386Z,48.73
2016-06-26T11:30:31.009Z,48.16
2016-06-26T11:31:31.007Z,47.77
2016-06-26T11:32:30.354Z,48.65
2016-06-26T11:33:30.344Z,49.12
2016-06-26T11:34:30.972Z,49.61
2016-06-26T11:35:30.324Z,50.53
2016-06-26T11:36:30.958Z,50.34
2016-06-26T11:37:30.950Z,50.73
2016-06-26T11:38:30.931Z,49.93
2016-06-26T11:39:30.933Z,49.46
2016-06-26T11:40:30.935Z,48.12
2016-06-26T11:41:30.927Z,49.61
2016-06-26T11:42:30.912Z,51.12
2016-06-26T11:43:30.915Z,49.37
2016-06-26T11:44:30.903Z,49.39
2016-06-26T11:45:30.892Z,48.24
2016-06-26T11:46:30.891Z,47.19
2016-06-26T11:47:30.891Z,46.82
2016-06-26T11:48:30.246Z,45.97
2016-06-26T11:49:30.249Z,45.18
2016-06-26T11:50:30.232Z,44.15
2016-06-26T11:51:30.872Z,44.17
2016-06-26T11:52:30.231Z,44.68
2016-06-26T11:53:30.231Z,44.73
2016-06-26T11:54:30.863Z,43.66
2016-06-26T11:55:30.862Z,43.31
2016-06-26T11:56:30.855Z,42.52
2016-06-26T11:57:30.853Z,42.13
2016-06-26T11:58:30.835Z,43.52
2016-06-26T11:59:30.844Z,43.12
2016-06-26T12:00:30.201Z,42.13
2016-06-26T12:01:30.841Z,41.84
2016-06-26T12:02:30.869Z,41.27
2016-06-26T12:03:30.841Z,40.41
2016-06-26T12:04:30.840Z,40.63
2016-06-26T12:05:30.872Z,39.56
2016-06-26T12:06:30.836Z,39.37
2016-06-26T12:07:30.854Z,39.29
2016-06-26T12:08:30.842Z,40.16
2016-06-26T12:09:30.844Z,39.25
2016-06-26T12:10:30.851Z,38.32
2016-06-26T12:11:30.836Z,38.64
2016-06-26T12:12:30.841Z,38.62
2016-06-26T12:13:30.851Z,39.09
2016-06-26T12:14:30.891Z,38.88
2016-06-26T12:15:30.826Z,38.23
2016-06-26T12:16:30.834Z,38.03
2016-06-26T12:17:30.834Z,37.76
2016-06-26T12:18:30.191Z,36.69
2016-06-26T12:19:30.826Z,36.51
2016-06-26T12:20:30.188Z,36.41
2016-06-26T12:21:30.198Z,35.84
2016-06-26T12:22:30.838Z,36.63
2016-06-26T12:23:30.829Z,35.92
2016-06-26T12:24:30.831Z,36.11
2016-06-26T12:25:30.831Z,34.86
2016-06-26T12:26:30.832Z,35.56
2016-06-26T12:27:30.835Z,34.31
2016-06-26T12:28:30.842Z,35.28
2016-06-26T12:29:30.199Z,34.67
2016-06-26T12:30:30.837Z,33.91
2016-06-26T12:31:30.839Z,33.62
2016-06-26T12:32:30.201Z,33.34
2016-06-26T12:33:30.209Z,32.67
2016-06-26T12:34:30.849Z,34
2016-06-26T12:35:30.203Z,34.74
2016-06-26T12:36:30.840Z,33.28
2016-06-26T12:37:30.209Z,33.03
2016-06-26T12:38:30.211Z,33.8
2016-06-26T12:39:30.845Z,32.92
2016-06-26T12:40:30.855Z,32.34
2016-06-26T12:41:30.878Z,33.04
2016-06-26T12:42:30.857Z,32.72
2016-06-26T12:43:30.866Z,33.31
2016-06-26T12:44:30.227Z,33.49
2016-06-26T12:45:30.856Z,34.17
2016-06-26T12:46:30.863Z,34.64
2016-06-26T12:47:30.234Z,35.2
2016-06-26T12:48:30.222Z,34.7
2016-06-26T12:49:30.866Z,34.94
2016-06-26T12:50:30.893Z,33.28
2016-06-26T12:51:30.873Z,32.03
2016-06-26T12:52:30.878Z,34
2016-06-26T12:53:30.869Z,34.34
2016-06-26T12:54:30.881Z,34.15
2016-06-26T12:55:30.889Z,34.03